createdAt,value
2018-05-31T00:01:28.169Z,7.63
2018-05-31T00:03:55.743Z,5.13
2018-05-31T00:06:23.295Z,6.20
2018-05-31T00:08:50.881Z,10.77
2018-05-31T00:11:18.461Z,7.47
2018-05-31T00:13:46.342Z,5.60
2018-05-31T00:16:23.932Z,8.97
2018-05-31T00:18:52.286Z,5.43
2018-05-31T00:21:19.837Z,16.97
2018-05-31T00:23:47.417Z,51.13
2018-05-31T00:26:14.971Z,7.60
2018-05-31T00:28:42.556Z,9.03
2018-05-31T00:31:10.871Z,6.93
2018-05-31T00:33:38.446Z,5.70
2018-05-31T00:36:06.007Z,6.03
2018-05-31T00:38:33.578Z,10.93
2018-05-31T00:41:01.143Z,8.50
2018-05-31T00:43:28.733Z,9.80
2018-05-31T00:45:57.054Z,8.70
2018-05-31T00:48:24.644Z,7.30
2018-05-31T00:50:52.192Z,10.60
2018-05-31T00:53:19.763Z,8.17
2018-05-31T00:55:59.132Z,9.97
2018-05-31T00:58:26.717Z,9.00
2018-05-31T01:00:54.273Z,15.60
2018-05-31T01:03:21.857Z,12.40
2018-05-31T01:05:49.414Z,8.13
2018-05-31T01:08:16.985Z,10.00
2018-05-31T01:10:44.541Z,6.00
2018-05-31T01:13:12.109Z,14.33
2018-05-31T01:15:39.665Z,10.50
2018-05-31T01:18:07.264Z,34.27
2018-05-31T01:20:35.580Z,11.83
2018-05-31T01:23:03.156Z,8.60
2018-05-31T01:25:30.702Z,9.07
2018-05-31T01:27:58.280Z,7.70
2018-05-31T01:30:25.838Z,8.70
2018-05-31T01:32:53.422Z,10.37
2018-05-31T01:35:20.971Z,7.47
2018-05-31T01:37:48.549Z,5.23
2018-05-31T01:40:16.114Z,6.30
2018-05-31T01:42:43.702Z,9.50
2018-05-31T01:45:11.259Z,5.90
2018-05-31T01:47:39.594Z,4.87
2018-05-31T01:50:07.177Z,5.40
2018-05-31T01:52:35.525Z,5.63
2018-05-31T01:55:03.077Z,8.57
2018-05-31T01:57:30.664Z,18.40
2018-05-31T01:59:58.218Z,22.33
2018-05-31T02:02:25.795Z,24.27
2018-05-31T02:04:54.154Z,24.97
2018-05-31T02:07:21.710Z,26.30
2018-05-31T02:09:49.297Z,25.60
2018-05-31T02:12:17.625Z,25.20
2018-05-31T02:14:45.221Z,27.40
2018-05-31T02:17:12.794Z,23.90
2018-05-31T02:19:40.406Z,25.13
2018-05-31T02:22:08.002Z,24.43
2018-05-31T02:24:35.567Z,22.03
2018-05-31T02:27:03.128Z,22.90
2018-05-31T02:29:31.037Z,22.00
2018-05-31T02:31:58.582Z,22.10
2018-05-31T02:34:26.513Z,19.43
2018-05-31T02:36:54.069Z,19.43
2018-05-31T02:39:21.645Z,18.07
2018-05-31T02:41:49.209Z,18.17
2018-05-31T02:44:16.792Z,17.70
2018-05-31T02:46:44.349Z,18.30
2018-05-31T02:49:12.701Z,13.73
2018-05-31T02:51:40.259Z,16.80
2018-05-31T02:54:07.864Z,15.93
2018-05-31T02:56:35.416Z,11.10
2018-05-31T02:59:03.007Z,12.50
2018-05-31T03:01:30.562Z,12.50
2018-05-31T03:03:58.142Z,8.50
2018-05-31T03:06:25.694Z,11.47
2018-05-31T03:08:53.278Z,10.30
2018-05-31T03:11:20.830Z,11.10
2018-05-31T03:13:48.397Z,9.63
2018-05-31T03:16:15.940Z,6.17
2018-05-31T03:18:43.509Z,7.57
2018-05-31T03:21:11.060Z,8.70
2018-05-31T03:23:38.632Z,7.23
2018-05-31T03:26:06.194Z,26.03
2018-05-31T03:28:33.769Z,14.20
2018-05-31T03:31:01.314Z,7.87
2018-05-31T03:33:28.920Z,41.73
2018-05-31T03:35:56.477Z,18.53
2018-05-31T03:38:24.812Z,10.17
2018-05-31T03:40:52.364Z,8.20
2018-05-31T03:43:19.938Z,9.97
2018-05-31T03:45:47.499Z,7.10
2018-05-31T03:48:15.077Z,9.83
2018-05-31T03:50:43.398Z,9.40
2018-05-31T03:53:10.973Z,11.00
2018-05-31T03:55:38.521Z,31.07
2018-05-31T03:58:06.095Z,9.33
2018-05-31T04:00:33.665Z,10.07
2018-05-31T04:03:01.252Z,10.50
2018-05-31T04:05:29.577Z,11.50
2018-05-31T04:07:57.144Z,19.10
2018-05-31T04:10:24.728Z,21.07
2018-05-31T04:12:52.307Z,26.60
2018-05-31T04:15:19.889Z,27.57
2018-05-31T04:17:48.209Z,25.97
2018-05-31T04:20:15.788Z,22.57
2018-05-31T04:22:43.349Z,28.90
2018-05-31T04:25:11.695Z,22.13
2018-05-31T04:27:39.257Z,21.60
2018-05-31T04:30:06.837Z,18.53
2018-05-31T04:32:34.383Z,20.47
2018-05-31T04:35:01.993Z,20.17
2018-05-31T04:37:30.343Z,20.80
2018-05-31T04:39:57.949Z,23.20
2018-05-31T04:42:26.314Z,16.17
2018-05-31T04:44:53.881Z,17.00
2018-05-31T04:47:22.217Z,15.30
2018-05-31T04:49:49.792Z,12.23
2018-05-31T04:52:17.361Z,13.73
2018-05-31T04:54:44.946Z,14.53
2018-05-31T04:57:12.518Z,19.10
2018-05-31T04:59:40.095Z,17.37
2018-05-31T05:02:07.653Z,13.67
2018-05-31T05:04:35.233Z,16.13
2018-05-31T05:07:02.794Z,15.10
2018-05-31T05:09:30.377Z,16.10
2018-05-31T05:11:57.926Z,15.00
2018-05-31T05:14:25.520Z,13.57
2018-05-31T05:16:53.854Z,17.53
2018-05-31T05:19:21.448Z,14.03
2018-05-31T05:21:49.002Z,17.80
2018-05-31T05:24:16.589Z,17.30
2018-05-31T05:26:44.908Z,13.70
2018-05-31T05:29:12.487Z,14.83
2018-05-31T05:31:40.057Z,14.47
2018-05-31T05:34:07.662Z,11.20
2018-05-31T05:36:35.251Z,14.37
2018-05-31T05:39:02.839Z,13.13
2018-05-31T05:41:30.414Z,12.90
2018-05-31T05:43:58.767Z,14.87
2018-05-31T05:46:26.331Z,14.90
2018-05-31T05:48:53.941Z,10.60
2018-05-31T05:51:21.511Z,16.37
2018-05-31T05:53:49.106Z,13.00
2018-05-31T05:56:16.652Z,14.10
2018-05-31T05:58:44.268Z,14.23
2018-05-31T06:01:12.610Z,15.53
2018-05-31T06:03:40.185Z,13.10
2018-05-31T06:06:07.742Z,16.07
2018-05-31T06:08:35.331Z,16.20
2018-05-31T06:11:02.904Z,17.17
2018-05-31T06:13:30.501Z,15.37
2018-05-31T06:15:58.063Z,14.30
2018-05-31T06:18:25.614Z,16.40
2018-05-31T06:20:53.184Z,11.50
2018-05-31T06:23:20.759Z,15.13
2018-05-31T06:25:48.366Z,12.43
2018-05-31T06:28:15.929Z,16.17
2018-05-31T06:30:43.522Z,14.07
2018-05-31T06:54:09.171Z,16.77
2018-05-31T06:56:36.717Z,12.87
2018-05-31T06:59:04.313Z,11.20
2018-05-31T07:01:31.853Z,11.13
2018-05-31T07:03:59.420Z,12.60
2018-05-31T07:06:26.965Z,10.17
2018-05-31T07:08:54.541Z,11.17
2018-05-31T07:11:22.086Z,12.40
2018-05-31T07:13:49.677Z,11.33
2018-05-31T07:16:17.210Z,9.93
2018-05-31T07:18:44.778Z,10.30
2018-05-31T07:21:12.315Z,7.97
2018-05-31T07:23:40.132Z,8.83
2018-05-31T07:26:07.702Z,6.80
2018-05-31T07:28:35.245Z,6.43
2018-05-31T07:31:02.809Z,8.60
2018-05-31T07:33:30.349Z,6.40
2018-05-31T07:35:57.911Z,5.47
2018-05-31T07:38:25.837Z,6.37
2018-05-31T07:40:54.167Z,5.93
2018-05-31T07:43:21.704Z,6.73
2018-05-31T07:45:49.273Z,6.63
2018-05-31T07:48:16.809Z,4.33
2018-05-31T07:50:44.377Z,5.30
2018-05-31T07:53:11.918Z,6.00
2018-05-31T07:55:40.246Z,5.27
2018-05-31T07:58:07.807Z,4.63
2018-05-31T08:00:35.373Z,7.10
2018-05-31T08:03:02.918Z,4.60
2018-05-31T08:05:30.494Z,4.70
2018-05-31T08:07:58.031Z,5.73
2018-05-31T08:10:25.613Z,4.93
2018-05-31T08:12:53.169Z,5.57
2018-05-31T08:15:20.747Z,5.80
2018-05-31T08:17:48.289Z,5.43
2018-05-31T08:20:15.860Z,6.13
2018-05-31T08:22:43.429Z,5.63
2018-05-31T08:25:11.030Z,5.90
2018-05-31T08:27:38.565Z,6.23
2018-05-31T08:30:06.886Z,5.67
2018-05-31T08:32:34.433Z,5.47
2018-05-31T08:35:02.059Z,11.03
2018-05-31T08:37:30.376Z,8.33
2018-05-31T08:39:57.934Z,6.10
2018-05-31T08:42:25.487Z,5.40
2018-05-31T08:44:53.058Z,8.87
2018-05-31T08:47:20.601Z,8.63
2018-05-31T08:49:48.169Z,5.77
2018-05-31T08:52:15.732Z,7.60
2018-05-31T08:54:43.307Z,6.90
2018-05-31T08:57:10.856Z,8.63
2018-05-31T08:59:38.450Z,9.57
2018-05-31T09:02:05.996Z,6.13
2018-05-31T09:04:33.569Z,6.53
2018-05-31T09:07:01.102Z,4.70
2018-05-31T09:09:28.731Z,5.57
2018-05-31T09:11:56.264Z,4.60
2018-05-31T09:14:23.838Z,5.07
2018-05-31T09:16:52.145Z,5.97
2018-05-31T09:19:19.709Z,5.43
2018-05-31T09:21:47.286Z,5.50
2018-05-31T09:24:14.891Z,9.30
2018-05-31T09:26:43.209Z,5.70
2018-05-31T09:29:10.748Z,5.13
2018-05-31T09:31:39.090Z,5.33
2018-05-31T09:34:06.633Z,7.17
2018-05-31T09:36:34.202Z,6.37
2018-05-31T09:39:01.742Z,5.80
2018-05-31T09:41:29.323Z,5.43
2018-05-31T09:43:56.857Z,6.40
2018-05-31T09:46:24.441Z,6.60
2018-05-31T09:48:51.973Z,7.37
2018-05-31T09:51:19.533Z,5.70
2018-05-31T09:53:47.081Z,7.80
2018-05-31T09:56:14.649Z,6.33
2018-05-31T09:58:42.185Z,7.30
2018-05-31T10:01:10.535Z,5.70
2018-05-31T10:03:38.081Z,4.77
2018-05-31T10:06:05.664Z,5.73
2018-05-31T10:08:33.208Z,6.53
2018-05-31T10:11:00.782Z,5.00
2018-05-31T10:13:28.327Z,5.10
2018-05-31T10:15:55.895Z,6.70
2018-05-31T10:18:23.437Z,5.00
2018-05-31T10:20:51.005Z,4.93
2018-05-31T10:23:18.562Z,4.67
2018-05-31T10:25:46.121Z,6.13
2018-05-31T10:28:13.662Z,4.90
2018-05-31T10:30:41.221Z,4.30
2018-05-31T10:33:08.754Z,3.77
2018-05-31T10:35:36.333Z,5.30
2018-05-31T10:38:03.874Z,5.20
2018-05-31T10:40:31.448Z,5.20
2018-05-31T10:42:58.984Z,3.60
2018-05-31T10:45:27.309Z,3.97
2018-05-31T10:47:54.881Z,7.93
2018-05-31T10:50:22.454Z,4.80
2018-05-31T10:52:49.985Z,5.23
2018-05-31T10:55:17.573Z,5.13
2018-05-31T10:57:45.133Z,5.00
2018-05-31T11:00:12.712Z,7.10
2018-05-31T11:02:41.020Z,12.87
2018-05-31T11:05:08.589Z,4.90
2018-05-31T11:07:36.126Z,4.17
2018-05-31T11:10:03.722Z,4.40
2018-05-31T11:12:31.279Z,4.60
2018-05-31T11:14:58.907Z,7.00
2018-05-31T11:17:26.409Z,4.23
2018-05-31T11:19:54.001Z,8.33
2018-05-31T11:22:21.555Z,5.10
2018-05-31T11:24:49.125Z,4.70
2018-05-31T11:27:17.433Z,4.97
2018-05-31T11:29:45.001Z,4.63
2018-05-31T11:32:12.537Z,3.83
2018-05-31T11:34:40.889Z,4.60
2018-05-31T11:37:08.432Z,5.00
2018-05-31T11:39:35.993Z,4.10
2018-05-31T11:42:03.578Z,4.27
2018-05-31T11:44:31.161Z,4.30
2018-05-31T11:46:58.744Z,5.37
2018-05-31T11:49:26.300Z,5.57
2018-05-31T11:51:53.901Z,4.07
2018-05-31T11:54:21.453Z,4.70
2018-05-31T11:56:49.038Z,4.60
2018-05-31T11:59:16.575Z,4.33
2018-05-31T12:01:44.159Z,4.57
2018-05-31T12:04:12.464Z,4.27
2018-05-31T12:06:40.089Z,3.67
2018-05-31T12:12:00.943Z,7.63
2018-05-31T12:14:29.253Z,5.07
2018-05-31T12:16:57.613Z,3.90
2018-05-31T12:19:25.193Z,5.47
2018-05-31T12:21:52.761Z,6.03
2018-05-31T12:24:20.314Z,4.70
2018-05-31T12:26:47.878Z,5.70
2018-05-31T12:29:15.425Z,4.80
2018-05-31T12:31:42.992Z,8.40
2018-05-31T12:34:10.533Z,6.60
2018-05-31T12:36:38.117Z,4.60
2018-05-31T12:39:06.589Z,4.63
2018-05-31T12:41:34.158Z,5.70
2018-05-31T12:44:01.696Z,3.50
2018-05-31T12:46:29.263Z,9.23
2018-05-31T12:48:56.823Z,5.73
2018-05-31T12:51:24.405Z,4.60
2018-05-31T12:53:51.955Z,6.20
2018-05-31T12:56:19.525Z,6.80
2018-05-31T12:58:47.077Z,4.40
2018-05-31T13:01:14.657Z,8.00
2018-05-31T13:03:42.203Z,6.03
2018-05-31T13:06:09.835Z,9.70
2018-05-31T13:08:37.766Z,5.73
2018-05-31T13:11:05.353Z,7.30
2018-05-31T13:13:32.919Z,3.80
2018-05-31T13:16:00.483Z,5.20
2018-05-31T13:18:28.033Z,5.10
2018-05-31T13:20:55.603Z,4.83
2018-05-31T13:23:23.142Z,5.87
2018-05-31T13:25:51.471Z,5.00
2018-05-31T13:28:19.030Z,4.80
2018-05-31T13:30:46.596Z,6.83
2018-05-31T13:33:14.154Z,4.40
2018-05-31T13:35:41.727Z,4.80
2018-05-31T13:38:09.273Z,6.03
2018-05-31T13:40:36.877Z,12.60
2018-05-31T13:43:05.233Z,4.50
2018-05-31T13:45:32.761Z,6.70
2018-05-31T13:48:00.313Z,6.80
2018-05-31T13:50:27.876Z,4.40
2018-05-31T13:52:55.413Z,6.80
2018-05-31T13:55:22.966Z,7.33
2018-05-31T13:57:50.517Z,6.70
2018-05-31T14:00:18.849Z,10.43
2018-05-31T14:02:46.406Z,4.30
2018-05-31T14:05:14.282Z,7.00
2018-05-31T14:07:41.879Z,8.13
2018-05-31T14:10:10.188Z,4.57
2018-05-31T14:12:37.768Z,5.50
2018-05-31T14:15:05.330Z,11.80
2018-05-31T14:17:32.901Z,4.90
2018-05-31T14:20:01.217Z,5.10
2018-05-31T14:22:29.564Z,5.90
2018-05-31T14:24:57.122Z,4.73
2018-05-31T14:27:24.702Z,6.43
2018-05-31T14:29:52.244Z,5.10
2018-05-31T14:32:19.820Z,4.43
2018-05-31T14:34:47.367Z,5.90
2018-05-31T14:37:14.953Z,6.63
2018-05-31T14:39:43.259Z,4.83
2018-05-31T14:42:10.847Z,9.10
2018-05-31T14:44:38.389Z,4.53
2018-05-31T14:47:06.714Z,8.80
2018-05-31T14:49:34.263Z,6.60
2018-05-31T14:52:01.837Z,7.03
2018-05-31T14:54:29.389Z,7.13
2018-05-31T14:56:56.957Z,6.30
2018-05-31T14:59:24.515Z,7.57
2018-05-31T15:01:52.085Z,9.03
2018-05-31T15:04:20.407Z,8.87
2018-05-31T15:06:47.991Z,4.90
2018-05-31T15:09:16.303Z,7.73
2018-05-31T15:11:44.655Z,7.07
2018-05-31T15:14:12.197Z,6.00
2018-05-31T15:16:39.791Z,7.90
2018-05-31T15:19:07.354Z,7.37
2018-05-31T15:21:35.688Z,5.60
2018-05-31T15:24:03.237Z,9.90
2018-05-31T15:26:30.799Z,7.67
2018-05-31T15:28:58.352Z,5.87
2018-05-31T15:31:25.925Z,6.83
2018-05-31T15:33:53.472Z,6.90
2018-05-31T15:36:21.047Z,4.87
2018-05-31T15:38:48.599Z,9.90
2018-05-31T15:41:16.178Z,10.73
2018-05-31T15:43:43.745Z,5.87
2018-05-31T15:46:11.306Z,8.70
2018-05-31T15:48:38.880Z,7.00
2018-05-31T15:51:06.452Z,13.70
2018-05-31T15:53:34.018Z,4.90
2018-05-31T15:56:02.370Z,7.77
2018-05-31T15:58:29.917Z,7.30
2018-05-31T16:00:57.500Z,10.27
2018-05-31T16:03:25.053Z,6.47
2018-05-31T16:05:52.633Z,6.57
2018-05-31T16:08:20.971Z,4.57
2018-05-31T16:10:48.550Z,6.33
2018-05-31T16:13:16.100Z,5.17
2018-05-31T16:15:43.665Z,6.90
2018-05-31T16:18:11.242Z,6.13
2018-05-31T16:20:38.794Z,5.00
2018-05-31T16:23:06.380Z,10.60
2018-05-31T16:25:34.690Z,4.20
2018-05-31T16:28:02.270Z,6.37
2018-05-31T16:30:29.876Z,5.07
2018-05-31T16:32:57.462Z,7.90
2018-05-31T16:35:25.014Z,5.67
2018-05-31T16:37:52.612Z,7.37
2018-05-31T16:40:20.165Z,4.30
2018-05-31T16:42:47.738Z,6.03
2018-05-31T16:45:15.285Z,5.03
2018-05-31T16:47:42.875Z,6.10
2018-05-31T16:50:10.471Z,5.40
2018-05-31T16:52:38.022Z,8.30
2018-05-31T16:55:06.334Z,4.70
2018-05-31T16:57:33.902Z,5.00
2018-05-31T17:00:01.451Z,6.07
2018-05-31T17:02:29.029Z,9.13
2018-05-31T17:04:56.574Z,5.63
2018-05-31T17:07:24.142Z,4.63
2018-05-31T17:09:51.687Z,6.10
2018-05-31T17:12:19.262Z,4.13
2018-05-31T17:14:46.810Z,7.60
2018-05-31T17:17:14.369Z,4.17
2018-05-31T17:19:41.916Z,6.50
2018-05-31T17:22:09.512Z,5.47
2018-05-31T17:24:37.078Z,7.30
2018-05-31T17:27:04.633Z,5.77
2018-05-31T17:29:32.194Z,5.47
2018-05-31T17:31:59.768Z,5.30
2018-05-31T17:34:27.305Z,5.90
2018-05-31T17:36:54.892Z,5.93
2018-05-31T17:39:22.452Z,4.80
2018-05-31T17:41:50.069Z,5.50
2018-05-31T17:44:17.610Z,4.97
2018-05-31T17:46:45.940Z,4.80
2018-05-31T17:49:13.495Z,5.77
2018-05-31T17:51:41.069Z,6.80
2018-05-31T17:54:08.630Z,6.73
2018-05-31T17:56:36.204Z,9.73
2018-05-31T17:59:03.749Z,8.03
2018-05-31T18:01:31.305Z,7.07
2018-05-31T18:03:58.837Z,6.53
2018-05-31T18:06:26.409Z,6.07
2018-05-31T18:08:53.952Z,9.27
2018-05-31T18:11:21.523Z,6.07
2018-05-31T18:13:49.060Z,6.57
2018-05-31T18:16:16.635Z,10.70
2018-05-31T18:18:44.198Z,7.40
2018-05-31T18:21:11.776Z,8.07
2018-05-31T18:23:39.350Z,7.47
2018-05-31T18:26:06.922Z,6.20
2018-05-31T18:28:34.475Z,6.20
2018-05-31T18:31:02.059Z,8.30
2018-05-31T18:33:30.380Z,6.73
2018-05-31T18:35:57.963Z,11.57
2018-05-31T18:38:25.541Z,6.40
2018-05-31T18:40:53.126Z,9.33
2018-05-31T18:43:21.460Z,7.00
2018-05-31T18:45:49.001Z,10.73
2018-05-31T18:48:24.386Z,8.00
2018-05-31T18:50:51.953Z,7.10
2018-05-31T18:53:20.320Z,7.73
2018-05-31T18:55:47.913Z,7.20
2018-05-31T18:58:15.490Z,7.90
2018-05-31T19:00:43.021Z,6.53
2018-05-31T19:03:11.362Z,7.00
2018-05-31T19:05:38.912Z,7.50
2018-05-31T19:08:06.479Z,8.40
2018-05-31T19:10:34.058Z,7.73
2018-05-31T19:13:07.430Z,7.47
2018-05-31T19:15:35.017Z,15.90
2018-05-31T19:18:02.562Z,8.40
2018-05-31T19:20:30.101Z,7.67
2018-05-31T19:22:57.677Z,7.83
2018-05-31T19:25:25.222Z,11.03
2018-05-31T19:27:52.788Z,8.17
2018-05-31T19:30:25.888Z,8.33
2018-05-31T19:32:53.483Z,6.57
2018-05-31T19:35:27.398Z,5.90
2018-05-31T19:37:55.743Z,9.67
2018-05-31T19:40:23.282Z,10.07
2018-05-31T19:45:57.833Z,6.13
2018-05-31T19:48:25.407Z,10.17
2018-05-31T19:50:52.938Z,7.53
2018-05-31T19:53:26.109Z,8.47
2018-05-31T19:55:53.648Z,12.67
2018-05-31T19:58:27.698Z,12.33
2018-05-31T20:01:00.984Z,10.33
2018-05-31T20:03:33.102Z,8.70
2018-05-31T20:06:00.653Z,7.60
2018-05-31T20:08:29.017Z,7.90
2018-05-31T20:10:56.558Z,10.10
2018-05-31T20:13:24.124Z,7.63
2018-05-31T20:15:51.678Z,7.50
2018-05-31T20:18:19.270Z,9.50
2018-05-31T20:20:46.856Z,7.60
2018-05-31T20:23:14.452Z,11.40
2018-05-31T20:25:42.029Z,12.20
2018-05-31T20:28:09.656Z,7.40
2018-05-31T20:30:37.237Z,6.83
2018-05-31T20:33:04.833Z,6.10
2018-05-31T20:35:32.395Z,6.43
2018-05-31T20:38:00.032Z,5.33
2018-05-31T20:40:27.565Z,8.27
2018-05-31T20:42:55.168Z,5.90
2018-05-31T20:45:22.706Z,5.60
2018-05-31T20:47:50.304Z,12.30
2018-05-31T20:50:17.878Z,7.87
2018-05-31T20:52:46.234Z,7.57
2018-05-31T20:55:13.849Z,6.13
2018-05-31T20:57:42.175Z,7.63
2018-05-31T21:00:09.729Z,6.37
2018-05-31T21:02:37.304Z,11.47
2018-05-31T21:05:04.873Z,9.30
2018-05-31T21:07:32.406Z,5.50
2018-05-31T21:09:59.994Z,7.83
2018-05-31T21:12:27.526Z,4.93
2018-05-31T21:14:55.137Z,6.00
2018-05-31T21:17:23.447Z,8.27
2018-05-31T21:19:51.035Z,5.80
2018-05-31T21:22:18.603Z,7.40
2018-05-31T21:24:46.173Z,7.70
2018-05-31T21:27:13.717Z,7.83
2018-05-31T21:29:41.286Z,7.63
2018-05-31T21:32:08.830Z,5.03
2018-05-31T21:34:36.396Z,9.07
2018-05-31T21:37:03.943Z,7.90
2018-05-31T21:39:31.508Z,6.60
2018-05-31T21:41:59.048Z,6.87
2018-05-31T21:44:27.061Z,6.30
2018-05-31T21:46:54.622Z,9.90
2018-05-31T21:49:22.188Z,6.50
2018-05-31T21:51:50.501Z,8.43
2018-05-31T21:54:18.087Z,5.30
2018-05-31T21:56:45.647Z,7.17
2018-05-31T21:59:13.246Z,7.33
2018-05-31T22:01:41.582Z,5.30
2018-05-31T22:04:09.161Z,8.80
2018-05-31T22:06:36.705Z,10.17
2018-05-31T22:09:05.240Z,7.20
2018-05-31T22:11:33.610Z,11.83
2018-05-31T22:14:01.174Z,8.80
2018-05-31T22:16:29.485Z,10.50
2018-05-31T22:18:57.045Z,7.20
2018-05-31T22:21:24.604Z,9.27
2018-05-31T22:23:52.161Z,11.00
2018-05-31T22:26:19.712Z,9.43
2018-05-31T22:28:47.296Z,10.17
2018-05-31T22:31:14.856Z,13.73
2018-05-31T22:33:42.432Z,9.90
2018-05-31T22:36:09.965Z,9.50
2018-05-31T22:38:37.529Z,12.07
2018-05-31T22:41:05.063Z,11.83
2018-05-31T22:43:33.393Z,12.83
2018-05-31T22:46:00.990Z,10.97
2018-05-31T22:48:28.594Z,13.90
2018-05-31T22:50:56.137Z,11.53
2018-05-31T22:53:23.701Z,12.80
2018-05-31T22:55:51.254Z,12.70
2018-05-31T22:58:18.813Z,8.63
2018-05-31T23:00:46.356Z,9.17
2018-05-31T23:03:14.779Z,9.17
2018-05-31T23:05:42.994Z,12.03
2018-05-31T23:08:10.565Z,13.50
2018-05-31T23:10:38.889Z,11.20
2018-05-31T23:13:06.788Z,17.50
2018-05-31T23:15:34.335Z,13.20
2018-05-31T23:18:01.886Z,16.73
2018-05-31T23:20:29.448Z,11.63
2018-05-31T23:22:56.998Z,11.07
2018-05-31T23:25:24.563Z,13.77
2018-05-31T23:27:52.111Z,10.80
2018-05-31T23:30:19.723Z,13.57
2018-05-31T23:32:47.254Z,11.50
2018-05-31T23:35:14.821Z,18.67
2018-05-31T23:37:42.361Z,10.93
2018-05-31T23:40:09.923Z,9.50
2018-05-31T23:42:37.474Z,13.63
2018-05-31T23:45:05.134Z,11.97
2018-05-31T23:47:32.676Z,15.40
2018-05-31T23:50:00.240Z,10.70
2018-05-31T23:52:27.785Z,15.13
2018-05-31T23:54:56.120Z,14.80
2018-05-31T23:57:23.755Z,13.43
2018-05-31T23:59:51.329Z,10.33
